createdAt,value
2022-12-11T00:05:24.251Z,17.13
2022-12-11T00:15:27.321Z,16.90
2022-12-11T00:25:31.745Z,19.80
2022-12-11T00:35:34.827Z,20.53
2022-12-11T00:45:40.248Z,17.00
2022-12-11T00:55:44.179Z,18.27
2022-12-11T01:05:55.462Z,17.50
2022-12-11T01:15:58.451Z,16.43
2022-12-11T01:26:08.406Z,15.83
2022-12-11T01:36:13.958Z,16.43
2022-12-11T01:46:18.465Z,16.27
2022-12-11T01:56:21.710Z,15.47
2022-12-11T02:06:38.276Z,15.50
2022-12-11T02:16:47.739Z,14.23
2022-12-11T02:27:15.018Z,13.77
2022-12-11T02:37:23.146Z,12.27
2022-12-11T02:47:28.992Z,13.30
2022-12-11T02:57:39.735Z,11.87
2022-12-11T03:07:45.370Z,11.60
2022-12-11T03:18:02.622Z,10.77
2022-12-11T03:28:12.325Z,12.00
2022-12-11T03:38:22.090Z,12.50
2022-12-11T03:48:28.279Z,10.07
2022-12-11T03:58:32.868Z,11.17
2022-12-11T04:08:36.003Z,11.20
2022-12-11T04:18:57.717Z,12.60
2022-12-11T04:29:00.751Z,13.33
2022-12-11T04:39:06.305Z,12.00
2022-12-11T04:49:10.027Z,13.30
2022-12-11T04:59:14.844Z,9.63
2022-12-11T05:09:18.007Z,9.73
2022-12-11T05:19:22.409Z,10.60
2022-12-11T05:29:25.449Z,9.87
2022-12-11T05:39:29.837Z,9.83
2022-12-11T05:49:32.869Z,11.33
2022-12-11T05:59:37.259Z,11.37
2022-12-11T06:09:40.345Z,11.20
2022-12-11T06:19:44.778Z,10.30
2022-12-11T06:29:48.107Z,11.03
2022-12-11T06:39:52.543Z,10.00
2022-12-11T06:49:56.783Z,10.13
2022-12-11T07:00:01.299Z,10.53
2022-12-11T07:10:08.256Z,10.50
2022-12-11T07:20:13.582Z,11.60
2022-12-11T07:30:16.761Z,10.33
2022-12-11T07:40:21.180Z,10.80
2022-12-11T07:50:24.269Z,12.27
2022-12-11T08:00:28.723Z,11.20
2022-12-11T08:10:31.804Z,11.30
2022-12-11T08:20:38.367Z,13.20
2022-12-11T08:30:41.950Z,11.67
2022-12-11T08:40:46.375Z,9.17
2022-12-11T08:50:49.472Z,13.47
2022-12-11T09:00:53.926Z,12.23
2022-12-11T09:10:57.120Z,10.70
2022-12-11T09:21:04.402Z,14.50
2022-12-11T09:31:10.805Z,12.33
2022-12-11T09:41:39.807Z,12.10
2022-12-11T09:51:48.259Z,13.13
2022-12-11T10:02:01.596Z,13.40
2022-12-11T10:12:16.024Z,13.03
2022-12-11T10:22:23.081Z,13.07
2022-12-11T10:32:32.094Z,14.80
2022-12-11T10:42:41.204Z,13.87
2022-12-11T10:52:47.192Z,16.00
2022-12-11T11:02:51.771Z,16.70
2022-12-11T11:13:02.037Z,15.90
2022-12-11T11:23:14.834Z,17.10
2022-12-11T11:33:21.876Z,16.47
2022-12-11T11:43:36.982Z,16.70
2022-12-11T11:53:41.740Z,17.90
2022-12-11T12:03:48.059Z,16.33
2022-12-11T12:14:00.351Z,17.10
2022-12-11T12:24:16.155Z,17.90
2022-12-11T12:34:31.708Z,17.10
2022-12-11T12:44:43.479Z,18.77
2022-12-11T12:55:03.788Z,17.43
2022-12-11T13:05:22.121Z,18.73
2022-12-11T13:15:39.011Z,22.73
2022-12-11T13:25:55.351Z,19.40
2022-12-11T13:36:26.887Z,17.43
2022-12-11T13:46:35.789Z,19.67
2022-12-11T13:56:38.873Z,20.10
2022-12-11T14:06:43.527Z,18.40
2022-12-11T14:16:49.263Z,20.50
2022-12-11T14:26:54.944Z,21.73
2022-12-11T14:36:58.919Z,20.50
2022-12-11T14:47:06.040Z,22.00
2022-12-11T14:57:14.279Z,22.77
2022-12-11T15:07:22.209Z,23.53
2022-12-11T15:17:26.489Z,22.73
2022-12-11T15:27:36.814Z,23.27
2022-12-11T15:37:40.147Z,23.13
2022-12-11T15:47:45.615Z,24.73
2022-12-11T15:57:51.554Z,27.03
2022-12-11T16:07:59.472Z,23.83
2022-12-11T16:18:04.778Z,23.17
2022-12-11T16:28:10.344Z,22.07
2022-12-11T16:38:16.585Z,26.73
2022-12-11T16:48:21.007Z,26.67
2022-12-11T16:58:24.078Z,26.17
2022-12-11T17:08:28.624Z,23.07
2022-12-11T17:18:31.670Z,25.93
2022-12-11T17:28:36.955Z,22.57
2022-12-11T17:38:40.113Z,26.73
2022-12-11T17:48:44.766Z,25.17
2022-12-11T17:58:47.863Z,28.63
2022-12-11T18:08:52.320Z,23.60
2022-12-11T18:18:56.411Z,27.17
2022-12-11T18:29:01.121Z,29.10
2022-12-11T18:39:04.430Z,28.53
2022-12-11T18:49:08.895Z,29.90
2022-12-11T18:59:13.493Z,32.67
2022-12-11T19:09:18.332Z,31.20
2022-12-11T19:19:22.774Z,30.60
2022-12-11T19:29:32.250Z,38.37
2022-12-11T19:39:35.942Z,34.03
2022-12-11T19:49:40.418Z,35.20
2022-12-11T19:59:43.490Z,33.70
2022-12-11T20:09:47.941Z,36.93
2022-12-11T20:19:50.960Z,34.40
2022-12-11T20:29:55.340Z,35.70
2022-12-11T20:39:58.375Z,34.80
2022-12-11T20:50:02.949Z,30.93
2022-12-11T21:00:06.778Z,28.77
2022-12-11T21:10:11.466Z,29.67
2022-12-11T21:20:14.495Z,30.57
2022-12-11T21:30:19.115Z,51.53
2022-12-11T21:40:23.483Z,37.70
2022-12-11T21:50:27.892Z,31.07
2022-12-11T22:00:30.992Z,30.27
2022-12-11T22:10:35.476Z,28.10
2022-12-11T22:20:38.493Z,32.07
2022-12-11T22:30:43.459Z,31.13
2022-12-11T22:40:46.554Z,28.63
2022-12-11T22:50:50.950Z,29.30
2022-12-11T23:00:54.004Z,33.07
2022-12-11T23:10:58.477Z,32.07
2022-12-11T23:21:01.527Z,30.00
2022-12-11T23:31:06.455Z,34.83
2022-12-11T23:41:12.715Z,28.90
2022-12-11T23:51:19.411Z,25.67
